ZLXY/XIY METAR and TAF weather

Enter ICAO airport designator
Station Type Date Time Source
ZLXY METAR 2018/12/10 14:00 UTC NOAA

ZLXY 101400Z 28001MPS 3500 BR NSC M06/M09 Q1034 NOSIG


Station Type Date Time Source
ZLXY Decoded METAR 2018/12/10 14:00 UTC NOAA

Xian/Xianyang, China (ZLXY) 34-26N 108-45E
Dec 10, 2018 - 09:00 AM EST / 2018.12.10 1400 UTC
Wind: from the W (280 degrees) at 2 MPH (2 KT):0
Visibility: 2 mile(s):0
Weather: mist
Temperature: 21 F (-6 C)
Dew Point: 15 F (-9 C)
Relative Humidity: 79%
Pressure (altimeter): 30.53 in. Hg (1034 hPa)
ob: ZLXY 101400Z 28001MPS 3500 BR NSC M06/M09 Q1034 NOSIG
cycle: 14

Station Type Date Time Source
ZLXY TAF 2018/12/10 12:03 UTC NOAA

TAF ZLXY 100902Z 1012/1112 24003MPS 3000 HZ NSC TX02/1107Z TNM07/23Z


Example: see airport list